Lehmann Sound — V2EM3 — position and weather

sailwx.info

Track history (hours):
 
Tides and Currents Weather Stations Pressure Air Temp Water Temp Dewpoint Dewpoint Depression Visibility Wind Speed Wind Dir Waves Ship Positions

Lehmann Sound

Last reported at 2014-Jul-29 08:29 UTC. Time now 2014-Jul-29 14:56 UTC.
Position N 53°42' W 000°49'.

Length 90 m; draft 5.1 m.

Type: Cargo ship. MMSI: 305476000.

Date/timePositionNaut miles runAvg speedWind from/ knotsBaromVisibWave heightAir tempDewpointWater temp
2014-Jul-29 08:29N 53°42' W 000°49'6 6.7
2014-Jul-29 07:31N 53°43' W 000°38'7 6.8
2014-Jul-29 06:33N 53°42' W 000°27'8 7.8
2014-Jul-29 05:33N 53°42' W 000°14'8 7.8
2014-Jul-29 04:33N 53°37' W 000°05'9 9.3
2014-Jul-29 03:33N 53°33' E 000°10'6 6.1
2014-Jul-29 02:32N 53°33' E 000°20'4 3.9
2014-Jul-29 01:31N 53°35' E 000°26'0 0.1
2014-Jul-28 23:28N 53°35' E 000°26'0 0.0
2014-Jul-28 22:13N 53°35' E 000°26'0 0.0
2014-Jul-28 21:28N 53°35' E 000°26'0 0.1
2014-Jul-28 19:10N 53°35' E 000°26'0 0.0
2014-Jul-28 18:28N 53°35' E 000°26'6 6.0
2014-Jul-28 17:25N 53°37' E 000°36'39810.2
2014-Jul-27 02:31N 57°45' E 009°49'9 9.3
2014-Jul-27 01:33N 57°48' E 010°05'10 9.5
2014-Jul-27 00:33N 57°49' E 010°23'10 9.7
2014-Jul-26 23:33N 57°49' E 010°41'9 8.8
2014-Jul-26 22:33N 57°41' E 010°46'1511.3
2014-Jul-26 21:14N 57°26' E 010°44'710.9
2014-Jul-26 20:33N 57°18' E 010°43'1110.9
2014-Jul-26 19:33N 57°08' E 010°47'1010.3
2014-Jul-26 18:33N 56°58' E 010°52'13 9.9
2014-Jul-26 17:17N 56°46' E 010°42'7 9.7
2014-Jul-26 16:33N 56°41' E 010°35'22 2.7
2014-Jul-26 08:31N 56°28' E 010°03'0 0.0
2014-Jul-26 07:25N 56°28' E 010°03'0 0.0
2014-Jul-26 06:25N 56°28' E 010°03'0 0.0
2014-Jul-26 03:25N 56°28' E 010°03'0 0.0
2014-Jul-26 02:19N 56°28' E 010°03'0 0.0
2014-Jul-26 01:31N 56°28' E 010°03'0 0.0
2014-Jul-26 00:31N 56°28' E 010°03'0 0.2
2014-Jul-25 23:33N 56°28' E 010°04'5 4.9
2014-Jul-25 22:33N 56°28' E 010°13'7 7.4
2014-Jul-25 21:33N 56°35' E 010°17'9 8.7
2014-Jul-25 20:31N 56°38' E 010°33'10 9.9
2014-Jul-25 19:33N 56°41' E 010°49'9 9.2
2014-Jul-25 18:33N 56°37' E 011°04'11510.2
2014-Jul-25 07:21N 54°42' E 010°53'1011.9
2014-Jul-25 06:33N 54°38' E 011°08'1111.3
2014-Jul-25 05:33N 54°31' E 011°24'1110.9
2014-Jul-25 04:33N 54°20' E 011°24'10 9.6
2014-Jul-25 03:33N 54°11' E 011°19'12 9.3
2014-Jul-25 02:16N 54°03' E 011°04'15 7.4
2014-Jul-25 00:11N 53°54' E 010°43'2 0.2
2014-Jul-24 16:32N 53°53' E 010°41'0 0.0
2014-Jul-24 15:32N 53°53' E 010°41'0 0.0
2014-Jul-24 14:29N 53°53' E 010°41'0 0.0
2014-Jul-24 13:32N 53°53' E 010°41'0 0.0
2014-Jul-24 10:08N 53°53' E 010°41'0 0.0
2014-Jul-24 09:32N 53°53' E 010°41'0 0.0
2014-Jul-24 08:23N 53°53' E 010°41'0 0.0
2014-Jul-23 18:25N 53°53' E 010°41'0 0.0
2014-Jul-23 16:25N 53°53' E 010°41'0 0.0
2014-Jul-23 12:07N 53°53' E 010°41'0 0.0
2014-Jul-23 02:31N 53°53' E 010°41'0 0.0
2014-Jul-22 20:25N 53°53' E 010°41'0 0.0
2014-Jul-22 19:31N 53°53' E 010°41'0 0.0
2014-Jul-22 18:31N 53°53' E 010°41'0 0.0
2014-Jul-22 17:24N 53°53' E 010°41'0 0.0
2014-Jul-22 16:27N 53°53' E 010°41'0 0.0
2014-Jul-22 14:24N 53°53' E 010°41'0 0.0
2014-Jul-22 13:24N 53°53' E 010°41'0 0.0
2014-Jul-20 11:17N 53°53' E 010°41'0 0.0
2014-Jul-20 10:29N 53°53' E 010°41'0 0.0
2014-Jul-20 09:05N 53°53' E 010°41'0 0.0
2014-Jul-20 08:29N 53°53' E 010°41'0 0.0
2014-Jul-20 07:29N 53°53' E 010°41'0 0.0
2014-Jul-20 06:29N 53°53' E 010°41'0 0.0
2014-Jul-20 03:33N 53°53' E 010°41'5 4.6
2014-Jul-20 02:33N 53°54' E 010°49'7 7.0
2014-Jul-20 01:33N 53°59' E 010°56'9 9.0
2014-Jul-20 00:33N 54°06' E 011°07'9 9.1
2014-Jul-19 23:33N 54°11' E 011°19'9 9.1
2014-Jul-19 22:33N 54°16' E 011°32'10 9.5
2014-Jul-19 21:33N 54°21' E 011°47'10 9.6
2014-Jul-19 20:33N 54°26' E 012°01'8 8.3
2014-Jul-19 19:33N 54°31' E 012°12'10 9.6
2014-Jul-19 18:33N 54°40' E 012°19'1010.0
2014-Jul-19 17:33N 54°48' E 012°28'1010.2
2014-Jul-19 16:33N 54°56' E 012°38'1010.0
2014-Jul-19 15:33N 55°06' E 012°38'1010.0
2014-Jul-19 14:33N 55°16' E 012°38'10 9.9
2014-Jul-19 13:33N 55°26' E 012°40'9 9.2
2014-Jul-19 12:33N 55°35' E 012°42'8 8.4
2014-Jul-19 11:33N 55°44' E 012°41'9 9.0
2014-Jul-19 10:33N 55°52' E 012°45'3 2.7
2014-Jul-19 09:29N 55°52' E 012°50'0 0.0
2014-Jul-19 08:32N 55°52' E 012°50'  
Track history (hours):
 
Tides and Currents Weather Stations Pressure Air Temp Water Temp Dewpoint Dewpoint Depression Visibility Wind Speed Wind Dir Waves Ship Positions

Lehmann Sound

Last reported at 2014-Jul-29 08:29 UTC. Time now 2014-Jul-29 14:56 UTC.
Position N 53°42' W 000°49'.

Length 90 m; draft 5.1 m.

Type: Cargo ship. MMSI: 305476000.

Date/timePositionNaut miles runAvg speedWind from/ knotsBaromVisibWave heightAir tempDewpointWater temp
2014-Jul-29 08:29N 53°42' W 000°49'6 6.7
2014-Jul-29 07:31N 53°43' W 000°38'7 6.8
2014-Jul-29 06:33N 53°42' W 000°27'8 7.8
2014-Jul-29 05:33N 53°42' W 000°14'8 7.8
2014-Jul-29 04:33N 53°37' W 000°05'9 9.3
2014-Jul-29 03:33N 53°33' E 000°10'6 6.1
2014-Jul-29 02:32N 53°33' E 000°20'4 3.9
2014-Jul-29 01:31N 53°35' E 000°26'0 0.1
2014-Jul-28 23:28N 53°35' E 000°26'0 0.0
2014-Jul-28 22:13N 53°35' E 000°26'0 0.0
2014-Jul-28 21:28N 53°35' E 000°26'0 0.1
2014-Jul-28 19:10N 53°35' E 000°26'0 0.0
2014-Jul-28 18:28N 53°35' E 000°26'6 6.0
2014-Jul-28 17:25N 53°37' E 000°36'39810.2
2014-Jul-27 02:31N 57°45' E 009°49'9 9.3
2014-Jul-27 01:33N 57°48' E 010°05'10 9.5
2014-Jul-27 00:33N 57°49' E 010°23'10 9.7
2014-Jul-26 23:33N 57°49' E 010°41'9 8.8
2014-Jul-26 22:33N 57°41' E 010°46'1511.3
2014-Jul-26 21:14N 57°26' E 010°44'710.9
2014-Jul-26 20:33N 57°18' E 010°43'1110.9
2014-Jul-26 19:33N 57°08' E 010°47'1010.3
2014-Jul-26 18:33N 56°58' E 010°52'13 9.9
2014-Jul-26 17:17N 56°46' E 010°42'7 9.7
2014-Jul-26 16:33N 56°41' E 010°35'22 2.7
2014-Jul-26 08:31N 56°28' E 010°03'0 0.0
2014-Jul-26 07:25N 56°28' E 010°03'0 0.0
2014-Jul-26 06:25N 56°28' E 010°03'0 0.0
2014-Jul-26 03:25N 56°28' E 010°03'0 0.0
2014-Jul-26 02:19N 56°28' E 010°03'0 0.0
2014-Jul-26 01:31N 56°28' E 010°03'0 0.0
2014-Jul-26 00:31N 56°28' E 010°03'0 0.2
2014-Jul-25 23:33N 56°28' E 010°04'5 4.9
2014-Jul-25 22:33N 56°28' E 010°13'7 7.4
2014-Jul-25 21:33N 56°35' E 010°17'9 8.7
2014-Jul-25 20:31N 56°38' E 010°33'10 9.9
2014-Jul-25 19:33N 56°41' E 010°49'9 9.2
2014-Jul-25 18:33N 56°37' E 011°04'11510.2
2014-Jul-25 07:21N 54°42' E 010°53'1011.9
2014-Jul-25 06:33N 54°38' E 011°08'1111.3
2014-Jul-25 05:33N 54°31' E 011°24'1110.9
2014-Jul-25 04:33N 54°20' E 011°24'10 9.6
2014-Jul-25 03:33N 54°11' E 011°19'12 9.3
2014-Jul-25 02:16N 54°03' E 011°04'15 7.4
2014-Jul-25 00:11N 53°54' E 010°43'2 0.2
2014-Jul-24 16:32N 53°53' E 010°41'0 0.0
2014-Jul-24 15:32N 53°53' E 010°41'0 0.0
2014-Jul-24 14:29N 53°53' E 010°41'0 0.0
2014-Jul-24 13:32N 53°53' E 010°41'0 0.0
2014-Jul-24 10:08N 53°53' E 010°41'0 0.0
2014-Jul-24 09:32N 53°53' E 010°41'0 0.0
2014-Jul-24 08:23N 53°53' E 010°41'0 0.0
2014-Jul-23 18:25N 53°53' E 010°41'0 0.0
2014-Jul-23 16:25N 53°53' E 010°41'0 0.0
2014-Jul-23 12:07N 53°53' E 010°41'0 0.0
2014-Jul-23 02:31N 53°53' E 010°41'0 0.0
2014-Jul-22 20:25N 53°53' E 010°41'0 0.0
2014-Jul-22 19:31N 53°53' E 010°41'0 0.0
2014-Jul-22 18:31N 53°53' E 010°41'0 0.0
2014-Jul-22 17:24N 53°53' E 010°41'0 0.0
2014-Jul-22 16:27N 53°53' E 010°41'0 0.0
2014-Jul-22 14:24N 53°53' E 010°41'0 0.0
2014-Jul-22 13:24N 53°53' E 010°41'0 0.0
2014-Jul-20 11:17N 53°53' E 010°41'0 0.0
2014-Jul-20 10:29N 53°53' E 010°41'0 0.0
2014-Jul-20 09:05N 53°53' E 010°41'0 0.0
2014-Jul-20 08:29N 53°53' E 010°41'0 0.0
2014-Jul-20 07:29N 53°53' E 010°41'0 0.0
2014-Jul-20 06:29N 53°53' E 010°41'0 0.0
2014-Jul-20 03:33N 53°53' E 010°41'5 4.6
2014-Jul-20 02:33N 53°54' E 010°49'7 7.0
2014-Jul-20 01:33N 53°59' E 010°56'9 9.0
2014-Jul-20 00:33N 54°06' E 011°07'9 9.1
2014-Jul-19 23:33N 54°11' E 011°19'9 9.1
2014-Jul-19 22:33N 54°16' E 011°32'10 9.5
2014-Jul-19 21:33N 54°21' E 011°47'10 9.6
2014-Jul-19 20:33N 54°26' E 012°01'8 8.3
2014-Jul-19 19:33N 54°31' E 012°12'10 9.6
2014-Jul-19 18:33N 54°40' E 012°19'1010.0
2014-Jul-19 17:33N 54°48' E 012°28'1010.2
2014-Jul-19 16:33N 54°56' E 012°38'1010.0
2014-Jul-19 15:33N 55°06' E 012°38'1010.0
2014-Jul-19 14:33N 55°16' E 012°38'10 9.9
2014-Jul-19 13:33N 55°26' E 012°40'9 9.2
2014-Jul-19 12:33N 55°35' E 012°42'8 8.4
2014-Jul-19 11:33N 55°44' E 012°41'9 9.0
2014-Jul-19 10:33N 55°52' E 012°45'3 2.7
2014-Jul-19 09:29N 55°52' E 012°50'0 0.0
2014-Jul-19 08:32N 55°52' E 012°50'  

Dump ship's entire track history